Impacts METAR Board
IDs:

KRWF - Redwood Falls Muni, MN, US

Updated at: 2300 UTC 15 Jul 2018
Potential Impact None Slight Moderate High
Time 15/11Z 15/12Z 15/13Z 15/14Z 15/15Z 15/16Z 15/17Z 15/18Z 15/19Z 15/20Z 15/21Z 15/22Z 15/23Z
Temp68 69 73 77 79 81 81 82 81 79 79 76 74
Dewpt67 69 70 70 69 69 70 72 70 69 68 67 64
Altim29.99 29.99 30.00 30.01 30.02 30.03 30.02 30.00 29.98 30.02 30.02 30.02 30.02
VIS6 5 10 10 10 10 10 10 10 10 10 10 10
CIG-- -- -- -- -- -- -- -- -- 40 -- -- --
CoverCLRCLRCLRCLRCLRSCTFEWCLRCLRBKNCLRCLRCLR
FltCatVFRMVFRVFRVFRVFRVFRVFRVFRVFRVFRVFRVFRVFR
WXBRBR----------------------
WDir00260280260280300330260310300310310
WSpd0 0 3 6 5 10 9 9 4 15 11 11 12
WGst-- -- -- -- -- -- -- -- -- 22 17 17 17
Raw hourly METARs
KRWF 151053Z AUTO 00000KT 6SM BR CLR 20/19 A2999 RMK AO2 SLP150 T02000194
KRWF 151153Z AUTO 00000KT 5SM BR CLR 21/21 A2999 RMK AO2 SLP151 T02060206 10217 20194 51003
KRWF 151253Z AUTO 26003KT 10SM CLR 23/21 A3000 RMK AO2 SLP152 T02280211
KRWF 151353Z AUTO 28006KT 10SM CLR 25/21 A3001 RMK AO2 SLP157 T02500211
KRWF 151453Z AUTO 26005KT 10SM CLR 26/21 A3002 RMK AO2 SLP159 T02610206 53008
KRWF 151553Z AUTO 28010KT 10SM FEW029 SCT039 27/21 A3003 RMK AO2 SLP161 T02720206
KRWF 151653Z AUTO 30009KT 10SM FEW029 27/21 A3002 RMK AO2 SLP159 T02720211
KRWF 151753Z AUTO 33009KT 10SM CLR 28/22 A3000 RMK AO2 SLP152 T02780222 10278 20206 58006
KRWF 151853Z AUTO 26004KT 10SM CLR 27/21 A2998 RMK AO2 SLP148 T02720211
KRWF 151953Z AUTO 31015G22KT 10SM FEW021 BKN040 26/21 A3002 RMK AO2 SLP159 T02610206
KRWF 152053Z AUTO 30011G17KT 10SM CLR 26/20 A3002 RMK AO2 SLP159 T02610200 53005
KRWF 152153Z AUTO 31011G17KT 10SM CLR 24/19 A3002 RMK AO2 SLP160 T02440194
KRWF 152253Z AUTO 31012G17KT 10SM CLR 23/18 A3002 RMK AO2 SLP161 T02330178



Page loaded:  23:17 UTC  |   04:17 PM Pacific  |   05:17 PM Mountain  |   06:17 PM Central  |   07:17 PM Eastern

 

ADVISORIES

FORECASTS

FORECASTS

OBSERVATIONS

USER TOOLS

ABOUT US